createdAt,value
2018-03-30T00:00:05.841Z,9.02
2018-03-30T00:00:18.021Z,9.02
2018-03-30T00:00:30.174Z,9.15
2018-03-30T00:00:42.385Z,9.15
2018-03-30T00:00:54.879Z,9.15
2018-03-30T00:01:07.026Z,9.15
2018-03-30T00:01:19.179Z,9.15
2018-03-30T00:01:31.331Z,9.15
2018-03-30T00:01:43.493Z,9.15
2018-03-30T00:01:55.642Z,9.15
2018-03-30T00:02:07.811Z,9.15
2018-03-30T00:02:19.952Z,9.15
2018-03-30T00:02:32.085Z,9.09
2018-03-30T00:02:44.253Z,9.09
2018-03-30T00:02:56.395Z,9.09
2018-03-30T00:03:08.548Z,9.09
2018-03-30T00:03:20.708Z,9.09
2018-03-30T00:03:32.886Z,9.09
2018-03-30T00:03:45.028Z,9.09
2018-03-30T00:03:57.177Z,9.09
2018-03-30T00:04:09.330Z,9.09
2018-03-30T00:04:21.499Z,9.09
2018-03-30T00:04:33.667Z,9.09
2018-03-30T00:04:46.258Z,9.09
2018-03-30T00:04:58.534Z,9.09
2018-03-30T00:05:10.725Z,9.09
2018-03-30T00:05:22.879Z,9.09
2018-03-30T00:05:35.041Z,9.09
2018-03-30T00:05:47.214Z,9.09
2018-03-30T00:05:59.388Z,9.09
2018-03-30T00:06:11.579Z,9.09
2018-03-30T00:06:23.750Z,8.73
2018-03-30T00:06:35.906Z,8.73
2018-03-30T00:06:48.045Z,8.73
2018-03-30T00:07:00.201Z,8.73
2018-03-30T00:07:12.405Z,8.73
2018-03-30T00:07:24.552Z,8.73
2018-03-30T00:07:36.713Z,8.73
2018-03-30T00:07:48.874Z,8.73
2018-03-30T00:08:01.013Z,8.73
2018-03-30T00:08:13.170Z,8.73
2018-03-30T00:08:25.342Z,8.4
2018-03-30T00:08:37.511Z,8.4
2018-03-30T00:08:49.662Z,8.4
2018-03-30T00:09:01.802Z,8.4
2018-03-30T00:09:13.938Z,8.4
2018-03-30T00:09:26.126Z,8.4
2018-03-30T00:09:38.554Z,8.4
2018-03-30T00:09:50.692Z,8.4
2018-03-30T00:10:02.851Z,8.4
2018-03-30T00:10:15.019Z,8.4
2018-03-30T00:10:27.149Z,8.3
2018-03-30T00:10:39.298Z,8.3
2018-03-30T00:10:51.462Z,8.3
2018-03-30T00:11:03.607Z,8.3
2018-03-30T00:11:15.810Z,8.3
2018-03-30T00:11:27.949Z,8.3
2018-03-30T00:11:40.124Z,8.3
2018-03-30T00:11:52.296Z,8.3
2018-03-30T00:12:04.453Z,8.3
2018-03-30T00:12:16.661Z,8.3
2018-03-30T00:12:28.813Z,8.64
2018-03-30T00:12:41.130Z,8.64
2018-03-30T00:12:53.288Z,8.64
2018-03-30T00:13:05.572Z,8.64
2018-03-30T00:13:17.722Z,8.64
2018-03-30T00:13:29.868Z,8.64
2018-03-30T00:13:42.029Z,8.64
2018-03-30T00:13:54.217Z,8.64
2018-03-30T00:14:06.371Z,8.64
2018-03-30T00:14:18.525Z,8.64
2018-03-30T00:14:30.674Z,8.97
2018-03-30T00:14:42.847Z,8.97
2018-03-30T00:14:55.059Z,8.97
2018-03-30T00:15:07.192Z,8.97
2018-03-30T00:15:19.389Z,8.97
2018-03-30T00:15:31.567Z,8.97
2018-03-30T00:15:43.693Z,8.97
2018-03-30T00:15:55.897Z,8.97
2018-03-30T00:16:08.074Z,8.97
2018-03-30T00:16:20.234Z,8.97
2018-03-30T00:16:32.380Z,9.14
2018-03-30T00:16:44.557Z,9.14
2018-03-30T00:16:56.721Z,9.14
2018-03-30T00:17:08.917Z,9.14
2018-03-30T00:17:21.112Z,9.14
2018-03-30T00:17:33.284Z,9.14
2018-03-30T00:17:45.433Z,9.14
2018-03-30T00:17:57.567Z,9.14
2018-03-30T00:18:09.774Z,9.14
2018-03-30T00:18:21.950Z,9.14
2018-03-30T00:18:34.096Z,9.65
2018-03-30T00:18:46.250Z,9.65
2018-03-30T00:18:58.416Z,9.65
2018-03-30T00:19:10.591Z,9.65
2018-03-30T00:19:22.734Z,9.65
2018-03-30T00:19:34.900Z,9.65
2018-03-30T00:19:47.044Z,9.65
2018-03-30T00:19:59.201Z,9.65
2018-03-30T00:20:11.337Z,9.65
2018-03-30T00:20:23.479Z,9.65
2018-03-30T00:20:35.608Z,9.87
2018-03-30T00:20:47.808Z,9.87
2018-03-30T00:20:59.979Z,9.87
2018-03-30T00:21:12.128Z,9.87
2018-03-30T00:21:24.314Z,9.87
2018-03-30T00:21:36.466Z,9.87
2018-03-30T00:21:48.630Z,9.87
2018-03-30T00:22:00.841Z,9.87
2018-03-30T00:22:13.019Z,9.87
2018-03-30T00:22:25.176Z,10.03
2018-03-30T00:22:37.383Z,10.03
2018-03-30T00:22:49.522Z,10.03
2018-03-30T00:23:01.682Z,10.03
2018-03-30T00:23:13.844Z,10.03
2018-03-30T00:23:26.048Z,10.03
2018-03-30T00:23:38.229Z,10.03
2018-03-30T00:23:50.397Z,10.03
2018-03-30T00:24:02.557Z,10.03
2018-03-30T00:24:14.728Z,10.03
2018-03-30T00:24:26.919Z,10.05
2018-03-30T00:24:39.063Z,10.05
2018-03-30T00:24:51.201Z,10.05
2018-03-30T00:25:03.354Z,10.05
2018-03-30T00:25:15.542Z,10.05
2018-03-30T00:25:27.677Z,10.05
2018-03-30T00:25:39.832Z,10.05
2018-03-30T00:25:51.996Z,10.05
2018-03-30T00:26:04.155Z,10.05
2018-03-30T00:26:16.323Z,10.05
2018-03-30T00:26:28.565Z,9.93
2018-03-30T00:26:40.901Z,9.93
2018-03-30T00:26:53.068Z,9.93
2018-03-30T00:27:05.291Z,9.93
2018-03-30T00:27:17.443Z,9.93
2018-03-30T00:27:29.623Z,9.93
2018-03-30T00:27:41.773Z,9.93
2018-03-30T00:27:53.917Z,9.93
2018-03-30T00:28:06.091Z,9.93
2018-03-30T00:28:18.244Z,9.93
2018-03-30T00:28:30.400Z,9.62
2018-03-30T00:28:42.560Z,9.62
2018-03-30T00:28:54.708Z,9.62
2018-03-30T00:29:06.866Z,9.62
2018-03-30T00:29:19.012Z,9.62
2018-03-30T00:29:31.182Z,9.62
2018-03-30T00:29:43.334Z,9.62
2018-03-30T00:29:55.517Z,9.62
2018-03-30T00:30:07.693Z,9.62
2018-03-30T00:30:19.856Z,9.62
2018-03-30T00:30:32.006Z,9.55
2018-03-30T00:30:44.165Z,9.55
2018-03-30T00:30:56.325Z,9.55
2018-03-30T00:31:08.479Z,9.55
2018-03-30T00:31:20.615Z,9.55
2018-03-30T00:31:32.776Z,9.55
2018-03-30T00:31:44.963Z,9.55
2018-03-30T00:31:57.126Z,9.55
2018-03-30T00:32:09.326Z,9.55
2018-03-30T00:32:21.496Z,9.55
2018-03-30T00:32:33.675Z,9.15
2018-03-30T00:32:45.827Z,9.15
2018-03-30T00:32:57.985Z,9.15
2018-03-30T00:33:10.143Z,9.15
2018-03-30T00:33:22.372Z,9.15
2018-03-30T00:33:34.721Z,9.15
2018-03-30T00:33:46.857Z,9.15
2018-03-30T00:33:59.007Z,9.15
2018-03-30T00:34:11.210Z,9.15
2018-03-30T00:34:23.374Z,9.15
2018-03-30T00:34:35.640Z,8.78
2018-03-30T00:34:47.773Z,8.78
2018-03-30T00:34:59.972Z,8.78
2018-03-30T00:35:12.131Z,8.78
2018-03-30T00:35:24.292Z,8.78
2018-03-30T00:35:36.439Z,8.78
2018-03-30T00:35:48.672Z,8.78
2018-03-30T00:36:00.846Z,8.78
2018-03-30T00:36:13.022Z,8.78
2018-03-30T00:36:25.183Z,8.78
2018-03-30T00:36:37.368Z,8.48
2018-03-30T00:36:49.544Z,8.48
2018-03-30T00:37:01.733Z,8.48
2018-03-30T00:37:13.903Z,8.48
2018-03-30T00:37:26.068Z,8.48
2018-03-30T00:37:38.269Z,8.48
2018-03-30T00:37:50.432Z,8.48
2018-03-30T00:38:02.580Z,8.48
2018-03-30T00:38:14.742Z,8.48
2018-03-30T00:38:26.934Z,8.48
2018-03-30T00:38:39.076Z,9.05
2018-03-30T00:38:51.276Z,9.05
2018-03-30T00:39:03.421Z,9.05
2018-03-30T00:39:15.590Z,9.05
2018-03-30T00:39:27.810Z,9.05
2018-03-30T00:39:40.265Z,9.05
2018-03-30T00:39:52.431Z,9.05
2018-03-30T00:40:04.668Z,9.05
2018-03-30T00:40:16.836Z,9.05
2018-03-30T00:40:29.001Z,9.72
2018-03-30T00:40:41.207Z,9.72
2018-03-30T00:40:53.359Z,9.72
2018-03-30T00:41:05.527Z,9.72
2018-03-30T00:41:17.731Z,9.72
2018-03-30T00:41:29.892Z,9.72
2018-03-30T00:41:42.076Z,9.72
2018-03-30T00:41:54.246Z,9.72
2018-03-30T00:42:06.437Z,9.72
2018-03-30T00:42:18.610Z,9.72
2018-03-30T00:42:30.785Z,9.68
2018-03-30T00:42:42.951Z,9.68
2018-03-30T00:42:55.107Z,9.68
2018-03-30T00:43:07.267Z,9.68
2018-03-30T00:43:19.482Z,9.68
2018-03-30T00:43:31.644Z,9.68
2018-03-30T00:43:43.785Z,9.68
2018-03-30T00:43:55.954Z,9.68
2018-03-30T00:44:08.109Z,9.68
2018-03-30T00:44:20.269Z,9.68
2018-03-30T00:44:32.426Z,9.86
2018-03-30T00:44:44.617Z,9.86
2018-03-30T00:44:56.847Z,9.86
2018-03-30T00:45:09.031Z,9.86
2018-03-30T00:45:21.179Z,9.86
2018-03-30T00:45:33.336Z,9.86
2018-03-30T00:45:45.492Z,9.86
2018-03-30T00:45:57.637Z,9.86
2018-03-30T00:46:09.794Z,9.86
2018-03-30T00:46:21.959Z,9.86
2018-03-30T00:46:34.123Z,10.1
2018-03-30T00:46:46.271Z,10.1
2018-03-30T00:46:58.502Z,10.1
2018-03-30T00:47:10.662Z,10.1
2018-03-30T00:47:22.807Z,10.1
2018-03-30T00:47:34.963Z,10.1
2018-03-30T00:47:47.110Z,10.1
2018-03-30T00:47:59.519Z,10.1
2018-03-30T00:48:11.650Z,10.1
2018-03-30T00:48:23.800Z,10.1
2018-03-30T00:48:36.016Z,9.79
2018-03-30T00:48:48.174Z,9.79
2018-03-30T00:49:00.483Z,9.79
2018-03-30T00:49:12.677Z,9.79
2018-03-30T00:49:24.893Z,9.79
2018-03-30T00:49:37.073Z,9.79
2018-03-30T00:49:49.208Z,9.79
2018-03-30T00:50:01.372Z,9.79
2018-03-30T00:50:13.536Z,9.79
2018-03-30T00:50:25.669Z,9.79
2018-03-30T00:50:37.819Z,8.93
2018-03-30T00:50:49.993Z,8.93
2018-03-30T00:51:02.141Z,8.93
2018-03-30T00:51:14.293Z,8.93
2018-03-30T00:51:26.432Z,8.93
2018-03-30T00:51:38.575Z,8.93
2018-03-30T00:51:50.708Z,8.93
2018-03-30T00:52:02.929Z,8.93
2018-03-30T00:52:15.091Z,8.93
2018-03-30T00:52:27.228Z,8.93
2018-03-30T00:52:39.402Z,8.84
2018-03-30T00:52:51.782Z,8.84
2018-03-30T00:53:03.924Z,8.84
2018-03-30T00:53:16.180Z,8.84
2018-03-30T00:53:28.312Z,8.84
2018-03-30T00:53:40.460Z,8.84
2018-03-30T00:53:52.665Z,8.84
2018-03-30T00:54:04.848Z,8.84
2018-03-30T00:54:17.004Z,8.84
2018-03-30T00:54:29.150Z,8.84
2018-03-30T00:54:41.294Z,9.17
2018-03-30T00:54:53.454Z,9.17
2018-03-30T00:55:05.761Z,9.17
2018-03-30T00:55:17.913Z,9.17
2018-03-30T00:55:30.057Z,9.17
2018-03-30T00:55:42.218Z,9.17
2018-03-30T00:55:54.384Z,9.17
2018-03-30T00:56:06.541Z,9.17
2018-03-30T00:56:18.696Z,9.17
2018-03-30T00:56:30.859Z,9.17
2018-03-30T00:56:43.005Z,9.17
2018-03-30T00:56:55.161Z,9.17
2018-03-30T00:57:07.314Z,9.17
2018-03-30T00:57:19.474Z,9.17
2018-03-30T00:57:31.857Z,9.17
2018-03-30T00:57:44.035Z,9.17
2018-03-30T00:57:56.184Z,9.17
2018-03-30T00:58:08.328Z,9.17
2018-03-30T00:58:20.658Z,9.17
2018-03-30T00:58:32.812Z,9.67
2018-03-30T00:58:44.970Z,9.67
2018-03-30T00:58:57.124Z,9.67
2018-03-30T00:59:09.323Z,9.67
2018-03-30T00:59:21.458Z,9.67
2018-03-30T00:59:33.628Z,9.67
2018-03-30T00:59:45.762Z,9.67
2018-03-30T00:59:57.915Z,9.67
2018-03-30T01:00:10.083Z,9.67
2018-03-30T01:00:22.252Z,9.67
2018-03-30T01:00:34.380Z,10.84
2018-03-30T01:00:46.566Z,10.84
2018-03-30T01:00:58.716Z,10.84
2018-03-30T01:01:10.873Z,10.84
2018-03-30T01:01:23.027Z,10.84
2018-03-30T01:01:35.171Z,10.84
2018-03-30T01:01:47.387Z,10.84
2018-03-30T01:01:59.548Z,10.84
2018-03-30T01:02:11.676Z,10.84
2018-03-30T01:02:23.851Z,10.84
2018-03-30T01:02:36.038Z,11.93
2018-03-30T01:02:48.230Z,11.93
2018-03-30T01:03:00.614Z,11.93
2018-03-30T01:03:12.760Z,11.93
2018-03-30T01:03:25.015Z,11.93
2018-03-30T01:03:37.161Z,11.93
2018-03-30T01:03:49.301Z,11.93
2018-03-30T01:04:01.442Z,11.93
2018-03-30T01:04:13.972Z,11.93
2018-03-30T01:04:26.147Z,11.93
2018-03-30T01:04:38.294Z,12.77
2018-03-30T01:04:50.790Z,12.77
2018-03-30T01:05:02.936Z,12.77
2018-03-30T01:05:15.127Z,12.77
2018-03-30T01:05:27.257Z,12.77
2018-03-30T01:05:39.403Z,12.77
2018-03-30T01:05:51.568Z,12.77
2018-03-30T01:06:03.740Z,12.77
2018-03-30T01:06:15.909Z,12.77
2018-03-30T01:06:28.067Z,12.77
2018-03-30T01:06:40.254Z,13.15
2018-03-30T01:06:52.418Z,13.15
2018-03-30T01:07:04.582Z,13.15
2018-03-30T01:07:16.773Z,13.15
2018-03-30T01:07:28.920Z,13.15
2018-03-30T01:07:41.103Z,13.15
2018-03-30T01:07:53.242Z,13.15
2018-03-30T01:08:05.380Z,13.15
2018-03-30T01:08:17.553Z,13.15
2018-03-30T01:08:29.709Z,13.15
2018-03-30T01:08:41.881Z,13.79
2018-03-30T01:08:54.020Z,13.79
2018-03-30T01:09:06.622Z,13.79
2018-03-30T01:09:18.767Z,13.79
2018-03-30T01:09:30.915Z,13.79
2018-03-30T01:09:43.051Z,13.79
2018-03-30T01:09:55.215Z,13.79
2018-03-30T01:10:07.333Z,13.79
2018-03-30T01:10:19.476Z,13.79
2018-03-30T01:10:31.623Z,13.79
2018-03-30T01:10:43.778Z,14.2
2018-03-30T01:10:55.955Z,14.2
2018-03-30T01:11:08.085Z,14.2
2018-03-30T01:11:20.260Z,14.2
2018-03-30T01:11:32.460Z,14.2
2018-03-30T01:11:44.619Z,14.2
2018-03-30T01:11:56.764Z,14.2
2018-03-30T01:12:08.959Z,14.2
2018-03-30T01:12:21.116Z,14.2
2018-03-30T01:12:33.265Z,14.2
2018-03-30T01:12:45.419Z,14.5
2018-03-30T01:12:57.643Z,14.5
2018-03-30T01:13:09.794Z,14.5
2018-03-30T01:13:21.952Z,14.5
2018-03-30T01:13:34.111Z,14.5
2018-03-30T01:13:46.251Z,14.5
2018-03-30T01:13:58.395Z,14.5
2018-03-30T01:14:10.573Z,14.5
2018-03-30T01:14:22.724Z,14.5
2018-03-30T01:14:34.925Z,14.57
2018-03-30T01:14:47.124Z,14.57
2018-03-30T01:14:59.257Z,14.57
2018-03-30T01:15:11.414Z,14.57
2018-03-30T01:15:23.559Z,14.57
2018-03-30T01:15:35.720Z,14.57
2018-03-30T01:15:47.880Z,14.57
2018-03-30T01:16:00.130Z,14.57
2018-03-30T01:16:12.284Z,14.57
2018-03-30T01:16:24.469Z,14.57
2018-03-30T01:16:36.639Z,15.02
2018-03-30T01:16:48.840Z,15.02
2018-03-30T01:17:00.999Z,15.02
2018-03-30T01:17:13.137Z,15.02
2018-03-30T01:17:25.300Z,15.02
2018-03-30T01:17:37.437Z,15.02
2018-03-30T01:17:49.594Z,15.02
2018-03-30T01:18:01.796Z,15.02
2018-03-30T01:18:13.958Z,15.02
2018-03-30T01:18:26.185Z,15.02
2018-03-30T01:18:38.349Z,15.02
2018-03-30T01:18:50.501Z,15.02
2018-03-30T01:19:02.655Z,15.02
2018-03-30T01:19:14.821Z,15.02
2018-03-30T01:19:26.987Z,15.02
2018-03-30T01:19:39.136Z,15.02
2018-03-30T01:19:51.304Z,15.02
2018-03-30T01:20:03.464Z,15.02
2018-03-30T01:20:15.626Z,15.02
2018-03-30T01:20:27.786Z,15.02
2018-03-30T01:20:39.941Z,14.9
2018-03-30T01:20:52.123Z,14.9
2018-03-30T01:21:04.281Z,14.9
2018-03-30T01:21:16.442Z,14.9
2018-03-30T01:21:28.584Z,14.9
2018-03-30T01:21:40.874Z,14.9
2018-03-30T01:21:53.050Z,14.9
2018-03-30T01:22:05.211Z,14.9
2018-03-30T01:22:17.361Z,14.9
2018-03-30T01:22:29.577Z,14.9
2018-03-30T01:22:41.755Z,14.1
2018-03-30T01:22:53.958Z,14.1
2018-03-30T01:23:06.390Z,14.1
2018-03-30T01:23:18.532Z,14.1
2018-03-30T01:23:30.707Z,14.1
2018-03-30T01:23:42.869Z,14.1
2018-03-30T01:23:55.095Z,14.1
2018-03-30T01:24:07.236Z,14.1
2018-03-30T01:24:19.392Z,14.1
2018-03-30T01:24:31.519Z,14.1
2018-03-30T01:24:43.648Z,14.85
2018-03-30T01:24:55.835Z,14.85
2018-03-30T01:25:07.982Z,14.85
2018-03-30T01:25:20.145Z,14.85
2018-03-30T01:25:32.314Z,14.85
2018-03-30T01:25:44.474Z,14.85
2018-03-30T01:25:56.645Z,14.85
2018-03-30T01:26:08.855Z,14.85
2018-03-30T01:26:20.999Z,14.85
2018-03-30T01:26:33.224Z,14.85
2018-03-30T01:26:45.357Z,15.91
2018-03-30T01:26:57.492Z,15.91
2018-03-30T01:27:09.694Z,15.91
2018-03-30T01:27:21.847Z,15.91
2018-03-30T01:27:34.033Z,15.91
2018-03-30T01:27:46.174Z,15.91
2018-03-30T01:27:58.299Z,15.91
2018-03-30T01:28:10.466Z,15.91
2018-03-30T01:28:22.646Z,15.91
2018-03-30T01:28:34.868Z,15.91
2018-03-30T01:28:47.021Z,15.62
2018-03-30T01:28:59.150Z,15.62
2018-03-30T01:29:11.311Z,15.62
2018-03-30T01:29:23.507Z,15.62
2018-03-30T01:29:35.661Z,15.62
2018-03-30T01:29:47.809Z,15.62
2018-03-30T01:29:59.969Z,15.62
2018-03-30T01:30:12.135Z,15.62
2018-03-30T01:30:24.353Z,15.62
2018-03-30T01:30:36.472Z,15.62
2018-03-30T01:30:48.631Z,15.48
2018-03-30T01:31:00.783Z,15.48
2018-03-30T01:31:12.964Z,15.48
2018-03-30T01:31:25.209Z,15.48
2018-03-30T01:31:37.397Z,15.48
2018-03-30T01:31:49.546Z,15.48
2018-03-30T01:32:01.757Z,15.48
2018-03-30T01:32:13.936Z,15.48
2018-03-30T01:32:26.127Z,15.48
2018-03-30T01:32:38.284Z,14.6
2018-03-30T01:32:50.458Z,14.6
2018-03-30T01:33:02.621Z,14.6
2018-03-30T01:33:14.780Z,14.6
2018-03-30T01:33:26.948Z,14.6
2018-03-30T01:33:39.101Z,14.6
2018-03-30T01:33:51.265Z,14.6
2018-03-30T01:34:03.413Z,14.6
2018-03-30T01:34:15.575Z,14.6
2018-03-30T01:34:27.893Z,14.6
2018-03-30T01:34:40.031Z,13.98
2018-03-30T01:34:52.154Z,13.98
2018-03-30T01:35:04.307Z,13.98
2018-03-30T01:35:16.434Z,13.98
2018-03-30T01:35:28.565Z,13.98
2018-03-30T01:35:40.713Z,13.98
2018-03-30T01:35:52.877Z,13.98
2018-03-30T01:36:05.070Z,13.98
2018-03-30T01:36:17.227Z,13.98
2018-03-30T01:36:29.374Z,13.98
2018-03-30T01:36:41.542Z,13.54
2018-03-30T01:36:53.686Z,13.54
2018-03-30T01:37:05.875Z,13.54
2018-03-30T01:37:18.031Z,13.54
2018-03-30T01:37:30.213Z,13.54
2018-03-30T01:37:42.401Z,13.54
2018-03-30T01:37:54.553Z,13.54
2018-03-30T01:38:06.700Z,13.54
2018-03-30T01:38:18.865Z,13.54
2018-03-30T01:38:31.025Z,13.54
2018-03-30T01:38:43.185Z,12.7
2018-03-30T01:38:55.345Z,12.7
2018-03-30T01:39:07.526Z,12.7
2018-03-30T01:39:19.667Z,12.7
2018-03-30T01:39:31.879Z,12.7
2018-03-30T01:39:44.038Z,12.7
2018-03-30T01:39:56.209Z,12.7
2018-03-30T01:40:08.367Z,12.7
2018-03-30T01:40:20.511Z,12.7
2018-03-30T01:40:32.665Z,12.7
2018-03-30T01:40:44.816Z,12.15
2018-03-30T01:40:56.994Z,12.15
2018-03-30T01:41:09.144Z,12.15
2018-03-30T01:41:21.297Z,12.15
2018-03-30T01:41:33.474Z,12.15
2018-03-30T01:41:45.642Z,12.15
2018-03-30T01:41:57.838Z,12.15
2018-03-30T01:42:09.989Z,12.15
2018-03-30T01:42:22.125Z,12.15
2018-03-30T01:42:34.314Z,12.15
2018-03-30T01:42:46.465Z,11.03
2018-03-30T01:42:58.603Z,11.03
2018-03-30T01:43:10.749Z,11.03
2018-03-30T01:43:22.905Z,11.03
2018-03-30T01:43:35.073Z,11.03
2018-03-30T01:43:47.236Z,11.03
2018-03-30T01:43:59.383Z,11.03
2018-03-30T01:44:11.528Z,11.03
2018-03-30T01:44:23.670Z,11.03
2018-03-30T01:44:36.172Z,11.03
2018-03-30T01:44:48.334Z,10.98
2018-03-30T01:45:00.478Z,10.98
2018-03-30T01:45:12.683Z,10.98
2018-03-30T01:45:24.906Z,10.98
2018-03-30T01:45:37.048Z,10.98
2018-03-30T01:45:49.194Z,10.98
2018-03-30T01:46:01.380Z,10.98
2018-03-30T01:46:13.532Z,10.98
2018-03-30T01:46:25.690Z,10.98
2018-03-30T01:46:37.845Z,10.98
2018-03-30T01:46:50.006Z,10.87
2018-03-30T01:47:02.138Z,10.87
2018-03-30T01:47:14.311Z,10.87
2018-03-30T01:47:26.447Z,10.87
2018-03-30T01:47:38.591Z,10.87
2018-03-30T01:47:50.761Z,10.87
2018-03-30T01:48:03.090Z,10.87
2018-03-30T01:48:15.236Z,10.87
2018-03-30T01:48:27.422Z,10.87
2018-03-30T01:48:39.603Z,10.87
2018-03-30T01:48:51.785Z,11.27
2018-03-30T01:49:04.119Z,11.27
2018-03-30T01:49:16.294Z,11.27
2018-03-30T01:49:28.468Z,11.27
2018-03-30T01:49:40.667Z,11.27
2018-03-30T01:49:52.829Z,11.27
2018-03-30T01:50:05.027Z,11.27
2018-03-30T01:50:17.184Z,11.27
2018-03-30T01:50:29.333Z,11.27
2018-03-30T01:50:41.501Z,11.18
2018-03-30T01:50:53.666Z,11.18
2018-03-30T01:51:05.842Z,11.18
2018-03-30T01:51:17.994Z,11.18
2018-03-30T01:51:30.141Z,11.18
2018-03-30T01:51:42.269Z,11.18
2018-03-30T01:51:54.443Z,11.18
2018-03-30T01:52:06.607Z,11.18
2018-03-30T01:52:18.816Z,11.18
2018-03-30T01:52:31.029Z,11.18
2018-03-30T01:52:43.188Z,11.37
2018-03-30T01:52:55.315Z,11.37
2018-03-30T01:53:07.506Z,11.37
2018-03-30T01:53:19.791Z,11.37
2018-03-30T01:53:31.952Z,11.37
2018-03-30T01:53:44.131Z,11.37
2018-03-30T01:53:56.308Z,11.37
2018-03-30T01:54:08.462Z,11.37
2018-03-30T01:54:20.635Z,11.37
2018-03-30T01:54:32.780Z,11.37
2018-03-30T01:54:44.947Z,11.13
2018-03-30T01:54:57.115Z,11.13
2018-03-30T01:55:09.580Z,11.13
2018-03-30T01:55:21.819Z,11.13
2018-03-30T01:55:34.027Z,11.13
2018-03-30T01:55:46.173Z,11.13
2018-03-30T01:55:58.308Z,11.13
2018-03-30T01:56:10.447Z,11.13
2018-03-30T01:56:22.616Z,11.13
2018-03-30T01:56:34.738Z,11.13
2018-03-30T01:56:46.934Z,11.72
2018-03-30T01:56:59.086Z,11.72
2018-03-30T01:57:11.223Z,11.72
2018-03-30T01:57:23.349Z,11.72
2018-03-30T01:57:35.550Z,11.72
2018-03-30T01:57:47.697Z,11.72
2018-03-30T01:57:59.866Z,11.72
2018-03-30T01:58:12.043Z,11.72
2018-03-30T01:58:24.250Z,11.72
2018-03-30T01:58:36.398Z,11.72
2018-03-30T01:58:48.545Z,12.52
2018-03-30T01:59:00.743Z,12.52
2018-03-30T01:59:13.205Z,12.52
2018-03-30T01:59:25.366Z,12.52
2018-03-30T01:59:37.513Z,12.52
2018-03-30T01:59:49.667Z,12.52
2018-03-30T02:00:01.801Z,12.52
2018-03-30T02:00:13.978Z,12.52
2018-03-30T02:00:26.160Z,12.52
2018-03-30T02:00:38.317Z,12.52
2018-03-30T02:00:50.563Z,13
2018-03-30T02:01:03.313Z,13
2018-03-30T02:01:15.511Z,13
2018-03-30T02:01:27.714Z,13
2018-03-30T02:01:39.933Z,13
2018-03-30T02:01:52.084Z,13
2018-03-30T02:02:04.259Z,13
2018-03-30T02:02:16.411Z,13
2018-03-30T02:02:28.627Z,13
2018-03-30T02:02:40.780Z,13
2018-03-30T02:02:52.908Z,13
2018-03-30T02:03:05.087Z,13
2018-03-30T02:03:17.222Z,13
2018-03-30T02:03:29.385Z,13
2018-03-30T02:03:41.546Z,13
2018-03-30T02:03:53.718Z,13
2018-03-30T02:04:05.951Z,13
2018-03-30T02:04:18.154Z,13
2018-03-30T02:04:30.362Z,13
2018-03-30T02:04:42.537Z,13
2018-03-30T02:04:54.897Z,13.1
2018-03-30T02:05:07.055Z,13.1
2018-03-30T02:05:19.220Z,13.1
2018-03-30T02:05:31.374Z,13.1
2018-03-30T02:05:43.522Z,13.1
2018-03-30T02:05:55.685Z,13.1
2018-03-30T02:06:07.848Z,13.1
2018-03-30T02:06:19.993Z,13.1
2018-03-30T02:06:32.148Z,13.1
2018-03-30T02:06:44.273Z,12.52
2018-03-30T02:06:56.400Z,12.52
2018-03-30T02:07:08.638Z,12.52
2018-03-30T02:07:20.794Z,12.52
2018-03-30T02:07:32.951Z,12.52
2018-03-30T02:07:45.166Z,12.52
2018-03-30T02:07:57.331Z,12.52
2018-03-30T02:08:09.486Z,12.52
2018-03-30T02:08:21.651Z,12.52
2018-03-30T02:08:33.809Z,12.52
2018-03-30T02:08:46.217Z,13.1
2018-03-30T02:08:58.411Z,13.1
2018-03-30T02:09:10.566Z,13.1
2018-03-30T02:09:22.689Z,13.1
2018-03-30T02:09:34.833Z,13.1
2018-03-30T02:09:46.994Z,13.1
2018-03-30T02:09:59.145Z,13.1
2018-03-30T02:10:11.280Z,13.1
2018-03-30T02:10:23.443Z,13.1
2018-03-30T02:10:35.601Z,13.1
2018-03-30T02:10:47.770Z,13.93
2018-03-30T02:10:59.925Z,13.93
2018-03-30T02:11:12.087Z,13.93
2018-03-30T02:11:24.248Z,13.93
2018-03-30T02:11:36.397Z,13.93
2018-03-30T02:11:48.544Z,13.93
2018-03-30T02:12:00.703Z,13.93
2018-03-30T02:12:12.869Z,13.93
2018-03-30T02:12:25.019Z,13.93
2018-03-30T02:12:37.184Z,13.93
2018-03-30T02:12:49.322Z,13.85
2018-03-30T02:13:01.586Z,13.85
2018-03-30T02:13:13.743Z,13.85
2018-03-30T02:13:25.895Z,13.85
2018-03-30T02:13:38.042Z,13.85
2018-03-30T02:13:50.240Z,13.85
2018-03-30T02:14:02.399Z,13.85
2018-03-30T02:14:14.554Z,13.85
2018-03-30T02:14:26.838Z,13.85
2018-03-30T02:14:39.044Z,13.85
2018-03-30T02:14:51.338Z,13.66
2018-03-30T02:15:03.500Z,13.66
2018-03-30T02:15:15.654Z,13.66
2018-03-30T02:15:27.798Z,13.66
2018-03-30T02:15:39.932Z,13.66
2018-03-30T02:15:52.148Z,13.66
2018-03-30T02:16:04.732Z,13.66
2018-03-30T02:16:16.931Z,13.66
2018-03-30T02:16:29.095Z,13.66
2018-03-30T02:16:41.235Z,13.66
2018-03-30T02:16:53.373Z,14.31
2018-03-30T02:17:05.537Z,14.31
2018-03-30T02:17:17.711Z,14.31
2018-03-30T02:17:29.868Z,14.31
2018-03-30T02:17:42.035Z,14.31
2018-03-30T02:17:54.188Z,14.31
2018-03-30T02:18:06.372Z,14.31
2018-03-30T02:18:18.572Z,14.31
2018-03-30T02:18:30.747Z,14.31
2018-03-30T02:18:42.941Z,14.31
2018-03-30T02:18:55.114Z,14.41
2018-03-30T02:19:07.262Z,14.41
2018-03-30T02:19:19.430Z,14.41
2018-03-30T02:19:31.576Z,14.41
2018-03-30T02:19:43.717Z,14.41
2018-03-30T02:19:55.854Z,14.41
2018-03-30T02:20:08.014Z,14.41
2018-03-30T02:20:20.185Z,14.41
2018-03-30T02:20:32.359Z,14.41
2018-03-30T02:20:44.512Z,14.41
2018-03-30T02:20:56.661Z,13.77
2018-03-30T02:21:08.820Z,13.77
2018-03-30T02:21:20.951Z,13.77
2018-03-30T02:21:33.123Z,13.77
2018-03-30T02:21:45.263Z,13.77
2018-03-30T02:21:57.434Z,13.77
2018-03-30T02:22:09.635Z,13.77
2018-03-30T02:22:21.773Z,13.77
2018-03-30T02:22:33.948Z,13.77
2018-03-30T02:22:46.127Z,13.77
2018-03-30T02:22:58.379Z,14.23
2018-03-30T02:23:10.530Z,14.23
2018-03-30T02:23:22.685Z,14.23
2018-03-30T02:23:34.827Z,14.23
2018-03-30T02:23:46.996Z,14.23
2018-03-30T02:23:59.144Z,14.23
2018-03-30T02:24:11.394Z,14.23
2018-03-30T02:24:23.522Z,14.23
2018-03-30T02:24:35.840Z,14.23
2018-03-30T02:24:48.063Z,14.23
2018-03-30T02:25:00.221Z,14.23
2018-03-30T02:25:12.404Z,14.23
2018-03-30T02:25:24.577Z,14.23
2018-03-30T02:25:36.736Z,14.23
2018-03-30T02:25:48.935Z,14.23
2018-03-30T02:26:01.099Z,14.23
2018-03-30T02:26:13.245Z,14.23
2018-03-30T02:26:25.475Z,14.23
2018-03-30T02:26:37.810Z,14.23
2018-03-30T02:26:49.944Z,14.83
2018-03-30T02:27:02.098Z,14.83
2018-03-30T02:27:14.272Z,14.83
2018-03-30T02:27:26.411Z,14.83
2018-03-30T02:27:38.580Z,14.83
2018-03-30T02:27:50.764Z,14.83
2018-03-30T02:28:02.911Z,14.83
2018-03-30T02:28:15.068Z,14.83
2018-03-30T02:28:27.209Z,14.83
2018-03-30T02:28:39.369Z,14.83
2018-03-30T02:28:51.522Z,14.77
2018-03-30T02:29:03.676Z,14.77
2018-03-30T02:29:15.810Z,14.77
2018-03-30T02:29:28.044Z,14.77
2018-03-30T02:29:40.182Z,14.77
2018-03-30T02:29:52.402Z,14.77
2018-03-30T02:30:04.558Z,14.77
2018-03-30T02:30:16.778Z,14.77
2018-03-30T02:30:29.064Z,14.77
2018-03-30T02:30:41.282Z,14.77
2018-03-30T02:30:53.453Z,15.04
2018-03-30T02:31:05.650Z,15.04
2018-03-30T02:31:17.898Z,15.04
2018-03-30T02:31:30.096Z,15.04
2018-03-30T02:31:42.614Z,15.04
2018-03-30T02:31:54.824Z,15.04
2018-03-30T02:32:07.038Z,15.04
2018-03-30T02:32:19.249Z,15.04
2018-03-30T02:32:31.402Z,15.04
2018-03-30T02:32:43.586Z,15.04
2018-03-30T02:32:55.824Z,15.4
2018-03-30T02:33:08.054Z,15.4
2018-03-30T02:33:20.266Z,15.4
2018-03-30T02:33:32.498Z,15.4
2018-03-30T02:33:44.684Z,15.4
2018-03-30T02:33:56.877Z,15.4
2018-03-30T02:34:09.112Z,15.4
2018-03-30T02:34:21.333Z,15.4
2018-03-30T02:34:33.513Z,15.4
2018-03-30T02:34:45.770Z,15.4
2018-03-30T02:34:57.950Z,15.42
2018-03-30T02:35:10.163Z,15.42
2018-03-30T02:35:22.338Z,15.42
2018-03-30T02:35:34.549Z,15.42
2018-03-30T02:35:46.754Z,15.42
2018-03-30T02:35:58.921Z,15.42
2018-03-30T02:36:11.124Z,15.42
2018-03-30T02:36:23.316Z,15.42
2018-03-30T02:36:35.543Z,15.42
2018-03-30T02:36:47.739Z,15.42
2018-03-30T02:36:59.955Z,15.45
2018-03-30T02:37:12.164Z,15.45
2018-03-30T02:37:24.378Z,15.45
2018-03-30T02:37:36.567Z,15.45
2018-03-30T02:37:48.768Z,15.45
2018-03-30T02:38:00.966Z,15.45
2018-03-30T02:38:13.202Z,15.45
2018-03-30T02:38:25.365Z,15.45
2018-03-30T02:38:37.576Z,15.45
2018-03-30T02:38:49.770Z,15.79
2018-03-30T02:39:01.984Z,15.79
2018-03-30T02:39:14.169Z,15.79
2018-03-30T02:39:26.391Z,15.79
2018-03-30T02:39:38.600Z,15.79
2018-03-30T02:39:50.798Z,15.79